Airport View

Enter AWOS ICAO identifier for current METAR.

ex. KFNL

KFFL 202315Z AUTO 00000KT 3/4SM BR OVC005 07/07 A2998 RMK A01

20 Oct 2020 23:19

Frequency: 132.025

Phone: 641-472-4548

Other Area AWOS: KAWG - KOTM - KMPZ - KOOA

TAF KOTM 201742Z 2018/2118 10012KT P6SM FEW013 OVC028 FM201900 12009KT P6SM VCSH OVC015 TEMPO 2020/2023 2SM -DZ OVC008 FM202300 15004KT P6SM VCSH OVC008 FM210000 VRB03KT P6SM OVC008 FM210400 26006KT P6SM SCT040